sensor_id;sensor_type;location;lat;lon;timestamp;temperature;humidity
48768;DHT22;34933;40.968;14.538;2022-07-10T00:01:48;23.70;74.80
48768;DHT22;34933;40.968;14.538;2022-07-10T00:04:33;23.70;74.90
48768;DHT22;34933;40.968;14.538;2022-07-10T00:07:18;23.70;74.90
48768;DHT22;34933;40.968;14.538;2022-07-10T00:10:04;23.70;75.10
48768;DHT22;34933;40.968;14.538;2022-07-10T00:12:50;23.70;74.60
48768;DHT22;34933;40.968;14.538;2022-07-10T00:15:35;23.70;74.80
48768;DHT22;34933;40.968;14.538;2022-07-10T00:18:20;23.70;75.20
48768;DHT22;34933;40.968;14.538;2022-07-10T00:21:05;23.60;75.20
48768;DHT22;34933;40.968;14.538;2022-07-10T00:23:50;23.60;75.20
48768;DHT22;34933;40.968;14.538;2022-07-10T00:26:34;23.50;75.40
48768;DHT22;34933;40.968;14.538;2022-07-10T00:29:19;23.50;75.40
48768;DHT22;34933;40.968;14.538;2022-07-10T00:32:04;23.50;75.10
48768;DHT22;34933;40.968;14.538;2022-07-10T00:34:48;23.60;75.40
48768;DHT22;34933;40.968;14.538;2022-07-10T00:37:33;23.60;75.20
48768;DHT22;34933;40.968;14.538;2022-07-10T00:40:17;23.50;75.40
48768;DHT22;34933;40.968;14.538;2022-07-10T00:43:02;23.50;75.40
48768;DHT22;34933;40.968;14.538;2022-07-10T00:45:48;23.60;75.50
48768;DHT22;34933;40.968;14.538;2022-07-10T00:48:33;23.50;75.60
48768;DHT22;34933;40.968;14.538;2022-07-10T00:51:26;23.50;75.50
48768;DHT22;34933;40.968;14.538;2022-07-10T00:54:11;23.50;75.50
48768;DHT22;34933;40.968;14.538;2022-07-10T00:56:56;23.50;75.50
48768;DHT22;34933;40.968;14.538;2022-07-10T00:59:41;23.50;75.80
48768;DHT22;34933;40.968;14.538;2022-07-10T01:02:26;23.60;76.00
48768;DHT22;34933;40.968;14.538;2022-07-10T01:05:10;23.50;75.90
48768;DHT22;34933;40.968;14.538;2022-07-10T01:07:55;23.50;75.80
48768;DHT22;34933;40.968;14.538;2022-07-10T01:10:40;23.50;75.90
48768;DHT22;34933;40.968;14.538;2022-07-10T01:13:24;23.50;75.70
48768;DHT22;34933;40.968;14.538;2022-07-10T01:16:10;23.50;75.80
48768;DHT22;34933;40.968;14.538;2022-07-10T01:18:56;23.50;75.50
48768;DHT22;34933;40.968;14.538;2022-07-10T01:21:41;23.50;75.80
48768;DHT22;34933;40.968;14.538;2022-07-10T01:24:26;23.50;75.80
48768;DHT22;34933;40.968;14.538;2022-07-10T01:27:10;23.50;75.70
48768;DHT22;34933;40.968;14.538;2022-07-10T01:29:55;23.40;76.10
48768;DHT22;34933;40.968;14.538;2022-07-10T01:32:40;23.40;75.90
48768;DHT22;34933;40.968;14.538;2022-07-10T01:35:24;23.40;76.50
48768;DHT22;34933;40.968;14.538;2022-07-10T01:38:09;23.40;76.20
48768;DHT22;34933;40.968;14.538;2022-07-10T01:40:55;23.40;76.60
48768;DHT22;34933;40.968;14.538;2022-07-10T01:43:39;23.40;76.60
48768;DHT22;34933;40.968;14.538;2022-07-10T01:46:29;23.30;77.00
48768;DHT22;34933;40.968;14.538;2022-07-10T01:49:13;23.20;77.10
48768;DHT22;34933;40.968;14.538;2022-07-10T01:51:59;23.20;77.10
48768;DHT22;34933;40.968;14.538;2022-07-10T01:54:44;23.10;77.30
48768;DHT22;34933;40.968;14.538;2022-07-10T01:57:28;23.10;77.20
48768;DHT22;34933;40.968;14.538;2022-07-10T02:00:13;23.10;77.20
48768;DHT22;34933;40.968;14.538;2022-07-10T02:02:58;23.20;77.10
48768;DHT22;34933;40.968;14.538;2022-07-10T02:06:01;23.20;77.40
48768;DHT22;34933;40.968;14.538;2022-07-10T02:08:46;23.00;77.50
48768;DHT22;34933;40.968;14.538;2022-07-10T02:11:30;23.00;77.70
48768;DHT22;34933;40.968;14.538;2022-07-10T02:14:15;23.20;77.80
48768;DHT22;34933;40.968;14.538;2022-07-10T02:17:00;23.10;77.90
48768;DHT22;34933;40.968;14.538;2022-07-10T02:19:45;23.10;78.20
48768;DHT22;34933;40.968;14.538;2022-07-10T02:22:29;23.10;78.40
48768;DHT22;34933;40.968;14.538;2022-07-10T02:25:14;23.10;77.60
48768;DHT22;34933;40.968;14.538;2022-07-10T02:27:59;23.10;76.00
48768;DHT22;34933;40.968;14.538;2022-07-10T02:30:46;23.20;77.30
48768;DHT22;34933;40.968;14.538;2022-07-10T02:33:31;23.20;77.60
48768;DHT22;34933;40.968;14.538;2022-07-10T02:36:15;23.10;78.20
48768;DHT22;34933;40.968;14.538;2022-07-10T02:39:00;23.00;78.90
48768;DHT22;34933;40.968;14.538;2022-07-10T02:41:45;22.80;79.30
48768;DHT22;34933;40.968;14.538;2022-07-10T02:44:29;22.90;79.40
48768;DHT22;34933;40.968;14.538;2022-07-10T02:47:14;22.90;78.30
48768;DHT22;34933;40.968;14.538;2022-07-10T02:49:59;22.90;78.10
48768;DHT22;34933;40.968;14.538;2022-07-10T02:52:43;22.90;78.00
48768;DHT22;34933;40.968;14.538;2022-07-10T02:55:28;22.80;78.30
48768;DHT22;34933;40.968;14.538;2022-07-10T02:58:15;22.80;78.70
48768;DHT22;34933;40.968;14.538;2022-07-10T03:01:00;22.80;78.40
48768;DHT22;34933;40.968;14.538;2022-07-10T03:03:45;22.80;78.10
48768;DHT22;34933;40.968;14.538;2022-07-10T03:06:30;22.80;79.00
48768;DHT22;34933;40.968;14.538;2022-07-10T03:09:14;22.70;79.40
48768;DHT22;34933;40.968;14.538;2022-07-10T03:11:59;22.70;79.10
48768;DHT22;34933;40.968;14.538;2022-07-10T03:14:44;22.60;78.10
48768;DHT22;34933;40.968;14.538;2022-07-10T03:17:28;22.70;78.50
48768;DHT22;34933;40.968;14.538;2022-07-10T03:20:13;22.50;80.70
48768;DHT22;34933;40.968;14.538;2022-07-10T03:22:58;22.30;81.00
48768;DHT22;34933;40.968;14.538;2022-07-10T03:25:42;22.00;81.80
48768;DHT22;34933;40.968;14.538;2022-07-10T03:28:27;22.00;81.90
48768;DHT22;34933;40.968;14.538;2022-07-10T03:31:11;22.00;82.50
48768;DHT22;34933;40.968;14.538;2022-07-10T03:33:56;22.00;83.20
48768;DHT22;34933;40.968;14.538;2022-07-10T03:36:41;22.00;83.10
48768;DHT22;34933;40.968;14.538;2022-07-10T03:39:26;22.30;80.20
48768;DHT22;34933;40.968;14.538;2022-07-10T03:42:10;22.40;81.00
48768;DHT22;34933;40.968;14.538;2022-07-10T03:44:55;22.30;80.20
48768;DHT22;34933;40.968;14.538;2022-07-10T03:47:40;22.40;81.30
48768;DHT22;34933;40.968;14.538;2022-07-10T03:50:24;22.20;82.30
48768;DHT22;34933;40.968;14.538;2022-07-10T03:53:09;22.20;81.90
48768;DHT22;34933;40.968;14.538;2022-07-10T03:55:54;22.30;81.40
48768;DHT22;34933;40.968;14.538;2022-07-10T03:58:38;22.40;81.70
48768;DHT22;34933;40.968;14.538;2022-07-10T04:01:23;22.40;81.40
48768;DHT22;34933;40.968;14.538;2022-07-10T04:04:07;22.40;81.60
48768;DHT22;34933;40.968;14.538;2022-07-10T04:06:53;22.30;81.90
48768;DHT22;34933;40.968;14.538;2022-07-10T04:09:39;22.20;83.20
48768;DHT22;34933;40.968;14.538;2022-07-10T04:12:23;22.00;84.50
48768;DHT22;34933;40.968;14.538;2022-07-10T04:15:08;22.30;83.50
48768;DHT22;34933;40.968;14.538;2022-07-10T04:17:52;22.40;84.00
48768;DHT22;34933;40.968;14.538;2022-07-10T04:20:37;22.40;83.40
48768;DHT22;34933;40.968;14.538;2022-07-10T04:23:22;22.40;83.70
48768;DHT22;34933;40.968;14.538;2022-07-10T04:26:06;22.60;83.60
48768;DHT22;34933;40.968;14.538;2022-07-10T04:29:00;22.50;83.80
48768;DHT22;34933;40.968;14.538;2022-07-10T04:31:44;22.50;84.00
48768;DHT22;34933;40.968;14.538;2022-07-10T04:34:30;22.50;84.30
48768;DHT22;34933;40.968;14.538;2022-07-10T04:37:15;22.60;84.20
48768;DHT22;34933;40.968;14.538;2022-07-10T04:39:59;22.70;83.50
48768;DHT22;34933;40.968;14.538;2022-07-10T04:42:44;22.80;83.50
48768;DHT22;34933;40.968;14.538;2022-07-10T04:45:29;22.90;84.00
48768;DHT22;34933;40.968;14.538;2022-07-10T04:48:14;22.90;84.30
48768;DHT22;34933;40.968;14.538;2022-07-10T04:50:58;22.90;84.50
48768;DHT22;34933;40.968;14.538;2022-07-10T04:53:43;22.90;83.30
48768;DHT22;34933;40.968;14.538;2022-07-10T04:56:28;22.90;85.10
48768;DHT22;34933;40.968;14.538;2022-07-10T04:59:12;23.00;84.10
48768;DHT22;34933;40.968;14.538;2022-07-10T05:01:57;23.10;84.40
48768;DHT22;34933;40.968;14.538;2022-07-10T05:04:41;23.10;84.60
48768;DHT22;34933;40.968;14.538;2022-07-10T05:07:26;23.10;84.30
48768;DHT22;34933;40.968;14.538;2022-07-10T05:10:11;23.10;83.30
48768;DHT22;34933;40.968;14.538;2022-07-10T05:12:56;23.20;83.80
48768;DHT22;34933;40.968;14.538;2022-07-10T05:15:41;23.30;84.30
48768;DHT22;34933;40.968;14.538;2022-07-10T05:18:25;23.40;84.10
48768;DHT22;34933;40.968;14.538;2022-07-10T05:21:10;23.50;83.70
48768;DHT22;34933;40.968;14.538;2022-07-10T05:23:55;23.60;82.60
48768;DHT22;34933;40.968;14.538;2022-07-10T05:26:40;23.70;83.10
48768;DHT22;34933;40.968;14.538;2022-07-10T05:29:24;23.70;83.60
48768;DHT22;34933;40.968;14.538;2022-07-10T05:32:09;23.80;83.80
48768;DHT22;34933;40.968;14.538;2022-07-10T05:34:54;23.80;83.30
48768;DHT22;34933;40.968;14.538;2022-07-10T05:37:41;23.80;82.80
48768;DHT22;34933;40.968;14.538;2022-07-10T05:40:26;23.80;82.80
48768;DHT22;34933;40.968;14.538;2022-07-10T05:43:10;23.90;82.70
48768;DHT22;34933;40.968;14.538;2022-07-10T05:45:56;24.00;82.00
48768;DHT22;34933;40.968;14.538;2022-07-10T05:48:41;24.10;81.90
48768;DHT22;34933;40.968;14.538;2022-07-10T05:51:28;24.10;82.00
48768;DHT22;34933;40.968;14.538;2022-07-10T05:54:12;24.10;80.80
48768;DHT22;34933;40.968;14.538;2022-07-10T05:56:57;24.20;80.90
48768;DHT22;34933;40.968;14.538;2022-07-10T05:59:43;24.30;77.40
48768;DHT22;34933;40.968;14.538;2022-07-10T06:02:27;24.50;77.80
48768;DHT22;34933;40.968;14.538;2022-07-10T06:05:12;24.50;78.40
48768;DHT22;34933;40.968;14.538;2022-07-10T06:07:57;24.60;78.60
48768;DHT22;34933;40.968;14.538;2022-07-10T06:10:41;24.60;78.90
48768;DHT22;34933;40.968;14.538;2022-07-10T06:13:28;24.60;80.10
48768;DHT22;34933;40.968;14.538;2022-07-10T06:16:12;24.60;79.40
48768;DHT22;34933;40.968;14.538;2022-07-10T06:18:57;24.60;77.70
48768;DHT22;34933;40.968;14.538;2022-07-10T06:21:42;24.70;76.40
48768;DHT22;34933;40.968;14.538;2022-07-10T06:24:26;24.70;77.00
48768;DHT22;34933;40.968;14.538;2022-07-10T06:27:11;24.70;75.80
48768;DHT22;34933;40.968;14.538;2022-07-10T06:29:56;24.70;77.00
48768;DHT22;34933;40.968;14.538;2022-07-10T06:32:41;24.80;77.30
48768;DHT22;34933;40.968;14.538;2022-07-10T06:35:26;24.90;77.70
48768;DHT22;34933;40.968;14.538;2022-07-10T06:38:10;24.80;77.30
48768;DHT22;34933;40.968;14.538;2022-07-10T06:40:55;24.70;76.70
48768;DHT22;34933;40.968;14.538;2022-07-10T06:43:40;24.60;78.10
48768;DHT22;34933;40.968;14.538;2022-07-10T06:46:24;24.60;77.20
48768;DHT22;34933;40.968;14.538;2022-07-10T06:49:09;24.60;78.40
48768;DHT22;34933;40.968;14.538;2022-07-10T06:51:54;24.60;78.60
48768;DHT22;34933;40.968;14.538;2022-07-10T06:54:38;24.60;78.70
48768;DHT22;34933;40.968;14.538;2022-07-10T06:57:23;24.70;79.60
48768;DHT22;34933;40.968;14.538;2022-07-10T07:00:08;24.70;79.70
48768;DHT22;34933;40.968;14.538;2022-07-10T07:02:56;24.80;79.40
48768;DHT22;34933;40.968;14.538;2022-07-10T07:05:40;24.70;79.20
48768;DHT22;34933;40.968;14.538;2022-07-10T07:08:25;24.80;79.80
48768;DHT22;34933;40.968;14.538;2022-07-10T07:11:09;24.70;79.70
48768;DHT22;34933;40.968;14.538;2022-07-10T07:13:54;24.80;79.80
48768;DHT22;34933;40.968;14.538;2022-07-10T07:16:39;24.80;79.40
48768;DHT22;34933;40.968;14.538;2022-07-10T07:19:26;24.80;79.50
48768;DHT22;34933;40.968;14.538;2022-07-10T07:22:37;24.90;80.60
48768;DHT22;34933;40.968;14.538;2022-07-10T07:25:41;24.90;80.70
48768;DHT22;34933;40.968;14.538;2022-07-10T07:28:31;24.90;80.70
48768;DHT22;34933;40.968;14.538;2022-07-10T07:31:15;24.90;81.90
48768;DHT22;34933;40.968;14.538;2022-07-10T07:34:02;24.90;81.90
48768;DHT22;34933;40.968;14.538;2022-07-10T07:36:46;25.00;81.80
48768;DHT22;34933;40.968;14.538;2022-07-10T07:39:31;25.00;82.20
48768;DHT22;34933;40.968;14.538;2022-07-10T07:42:17;25.10;81.60
48768;DHT22;34933;40.968;14.538;2022-07-10T07:45:03;25.10;82.10
48768;DHT22;34933;40.968;14.538;2022-07-10T07:47:56;25.20;82.00
48768;DHT22;34933;40.968;14.538;2022-07-10T07:50:41;25.10;81.90
48768;DHT22;34933;40.968;14.538;2022-07-10T07:53:26;25.30;82.40
48768;DHT22;34933;40.968;14.538;2022-07-10T07:56:11;25.40;81.60
48768;DHT22;34933;40.968;14.538;2022-07-10T07:58:55;25.40;82.20
48768;DHT22;34933;40.968;14.538;2022-07-10T08:01:40;25.40;82.90
48768;DHT22;34933;40.968;14.538;2022-07-10T08:04:25;25.50;82.60
48768;DHT22;34933;40.968;14.538;2022-07-10T08:07:09;25.50;82.50
48768;DHT22;34933;40.968;14.538;2022-07-10T08:09:54;25.70;82.40
48768;DHT22;34933;40.968;14.538;2022-07-10T08:12:40;25.80;81.90
48768;DHT22;34933;40.968;14.538;2022-07-10T08:15:25;25.90;82.20
48768;DHT22;34933;40.968;14.538;2022-07-10T08:18:10;25.80;80.80
48768;DHT22;34933;40.968;14.538;2022-07-10T08:20:54;25.80;80.70
48768;DHT22;34933;40.968;14.538;2022-07-10T08:23:39;25.90;82.60
48768;DHT22;34933;40.968;14.538;2022-07-10T08:26:24;26.10;81.90
48768;DHT22;34933;40.968;14.538;2022-07-10T08:29:08;26.20;80.00
48768;DHT22;34933;40.968;14.538;2022-07-10T08:31:54;26.20;80.80
48768;DHT22;34933;40.968;14.538;2022-07-10T08:34:38;26.30;80.80
48768;DHT22;34933;40.968;14.538;2022-07-10T08:37:23;26.40;79.40
48768;DHT22;34933;40.968;14.538;2022-07-10T08:40:12;26.50;80.30
48768;DHT22;34933;40.968;14.538;2022-07-10T08:42:57;26.70;79.50
48768;DHT22;34933;40.968;14.538;2022-07-10T08:45:42;26.90;79.10
48768;DHT22;34933;40.968;14.538;2022-07-10T08:48:26;27.00;78.70
48768;DHT22;34933;40.968;14.538;2022-07-10T08:51:40;27.20;78.00
48768;DHT22;34933;40.968;14.538;2022-07-10T08:54:27;27.30;77.60
48768;DHT22;34933;40.968;14.538;2022-07-10T08:57:14;27.40;77.30
48768;DHT22;34933;40.968;14.538;2022-07-10T08:59:59;27.50;77.10
48768;DHT22;34933;40.968;14.538;2022-07-10T09:02:44;27.60;76.50
48768;DHT22;34933;40.968;14.538;2022-07-10T09:05:29;27.70;76.60
48768;DHT22;34933;40.968;14.538;2022-07-10T09:11:18;27.80;76.90
48768;DHT22;34933;40.968;14.538;2022-07-10T09:14:04;28.00;76.60
48768;DHT22;34933;40.968;14.538;2022-07-10T09:16:52;28.10;76.60
48768;DHT22;34933;40.968;14.538;2022-07-10T09:19:36;28.20;76.90
48768;DHT22;34933;40.968;14.538;2022-07-10T09:22:21;28.10;76.50
48768;DHT22;34933;40.968;14.538;2022-07-10T09:25:12;28.20;77.10
48768;DHT22;34933;40.968;14.538;2022-07-10T09:27:56;28.30;75.20
48768;DHT22;34933;40.968;14.538;2022-07-10T09:30:46;28.40;75.50
48768;DHT22;34933;40.968;14.538;2022-07-10T09:33:31;28.40;73.50
48768;DHT22;34933;40.968;14.538;2022-07-10T09:36:17;28.50;75.10
48768;DHT22;34933;40.968;14.538;2022-07-10T09:39:03;28.60;73.80
48768;DHT22;34933;40.968;14.538;2022-07-10T09:41:47;28.60;74.90
48768;DHT22;34933;40.968;14.538;2022-07-10T09:44:32;28.80;74.40
48768;DHT22;34933;40.968;14.538;2022-07-10T09:47:23;28.80;73.20
48768;DHT22;34933;40.968;14.538;2022-07-10T09:50:27;28.50;72.90
48768;DHT22;34933;40.968;14.538;2022-07-10T09:53:12;28.50;73.20
48768;DHT22;34933;40.968;14.538;2022-07-10T09:56:01;28.70;72.80
48768;DHT22;34933;40.968;14.538;2022-07-10T09:58:50;29.00;72.30
48768;DHT22;34933;40.968;14.538;2022-07-10T10:01:36;29.00;70.90
48768;DHT22;34933;40.968;14.538;2022-07-10T10:04:24;29.10;70.40
48768;DHT22;34933;40.968;14.538;2022-07-10T10:07:11;29.20;70.40
48768;DHT22;34933;40.968;14.538;2022-07-10T10:09:59;28.80;70.00
48768;DHT22;34933;40.968;14.538;2022-07-10T10:12:48;28.80;70.90
48768;DHT22;34933;40.968;14.538;2022-07-10T10:15:36;28.70;70.30
48768;DHT22;34933;40.968;14.538;2022-07-10T10:18:22;28.50;71.40
48768;DHT22;34933;40.968;14.538;2022-07-10T10:21:07;28.90;70.90
48768;DHT22;34933;40.968;14.538;2022-07-10T10:23:54;29.40;70.60
48768;DHT22;34933;40.968;14.538;2022-07-10T10:26:39;29.70;68.60
48768;DHT22;34933;40.968;14.538;2022-07-10T10:29:25;30.00;68.90
48768;DHT22;34933;40.968;14.538;2022-07-10T10:32:10;30.20;69.80
48768;DHT22;34933;40.968;14.538;2022-07-10T10:34:54;30.30;67.60
48768;DHT22;34933;40.968;14.538;2022-07-10T10:37:42;30.40;68.60
48768;DHT22;34933;40.968;14.538;2022-07-10T10:40:33;30.60;68.80
48768;DHT22;34933;40.968;14.538;2022-07-10T10:43:23;30.80;68.20
48768;DHT22;34933;40.968;14.538;2022-07-10T10:46:26;31.00;67.50
48768;DHT22;34933;40.968;14.538;2022-07-10T10:49:10;31.10;67.80
48768;DHT22;34933;40.968;14.538;2022-07-10T10:52:03;31.30;67.90
48768;DHT22;34933;40.968;14.538;2022-07-10T10:57:41;31.30;66.80
48768;DHT22;34933;40.968;14.538;2022-07-10T11:00:33;31.20;65.70
48768;DHT22;34933;40.968;14.538;2022-07-10T11:03:27;31.00;65.10
48768;DHT22;34933;40.968;14.538;2022-07-10T11:06:12;31.00;65.80
48768;DHT22;34933;40.968;14.538;2022-07-10T11:12:09;31.00;65.60
48768;DHT22;34933;40.968;14.538;2022-07-10T11:14:54;30.80;64.80
48768;DHT22;34933;40.968;14.538;2022-07-10T11:17:39;31.10;65.60
48768;DHT22;34933;40.968;14.538;2022-07-10T11:20:23;31.50;65.00
48768;DHT22;34933;40.968;14.538;2022-07-10T11:29:27;31.00;63.90
48768;DHT22;34933;40.968;14.538;2022-07-10T11:32:15;31.40;65.70
48768;DHT22;34933;40.968;14.538;2022-07-10T11:35:00;31.80;63.40
48768;DHT22;34933;40.968;14.538;2022-07-10T11:37:52;31.30;62.90
48768;DHT22;34933;40.968;14.538;2022-07-10T11:40:37;30.60;63.50
48768;DHT22;34933;40.968;14.538;2022-07-10T11:43:22;30.70;64.30
48768;DHT22;34933;40.968;14.538;2022-07-10T11:46:08;31.50;64.10
48768;DHT22;34933;40.968;14.538;2022-07-10T11:48:53;31.90;65.30
48768;DHT22;34933;40.968;14.538;2022-07-10T11:51:39;32.50;64.20
48768;DHT22;34933;40.968;14.538;2022-07-10T11:54:24;32.40;61.90
48768;DHT22;34933;40.968;14.538;2022-07-10T11:57:08;32.10;64.40
48768;DHT22;34933;40.968;14.538;2022-07-10T11:59:53;32.70;61.50
48768;DHT22;34933;40.968;14.538;2022-07-10T12:02:37;33.10;61.20
48768;DHT22;34933;40.968;14.538;2022-07-10T12:05:36;33.30;60.30
48768;DHT22;34933;40.968;14.538;2022-07-10T12:08:21;33.90;60.70
48768;DHT22;34933;40.968;14.538;2022-07-10T12:11:14;34.30;60.60
48768;DHT22;34933;40.968;14.538;2022-07-10T12:14:18;34.90;59.70
48768;DHT22;34933;40.968;14.538;2022-07-10T12:17:10;35.50;58.70
48768;DHT22;34933;40.968;14.538;2022-07-10T12:19:56;35.70;58.80
48768;DHT22;34933;40.968;14.538;2022-07-10T12:22:41;36.20;58.20
48768;DHT22;34933;40.968;14.538;2022-07-10T12:25:25;34.90;58.10
48768;DHT22;34933;40.968;14.538;2022-07-10T12:28:10;33.80;59.00
48768;DHT22;34933;40.968;14.538;2022-07-10T12:30:56;34.30;60.00
48768;DHT22;34933;40.968;14.538;2022-07-10T12:33:40;35.10;59.30
48768;DHT22;34933;40.968;14.538;2022-07-10T12:39:45;36.90;58.50
48768;DHT22;34933;40.968;14.538;2022-07-10T12:42:30;37.50;58.20
48768;DHT22;34933;40.968;14.538;2022-07-10T12:45:15;38.10;56.50
48768;DHT22;34933;40.968;14.538;2022-07-10T12:47:59;38.60;56.90
48768;DHT22;34933;40.968;14.538;2022-07-10T12:50:44;38.40;55.90
48768;DHT22;34933;40.968;14.538;2022-07-10T12:53:29;38.30;56.10
48768;DHT22;34933;40.968;14.538;2022-07-10T12:56:31;38.30;55.80
48768;DHT22;34933;40.968;14.538;2022-07-10T12:59:17;38.30;56.20
48768;DHT22;34933;40.968;14.538;2022-07-10T13:02:18;38.00;56.20
48768;DHT22;34933;40.968;14.538;2022-07-10T13:05:03;37.30;56.60
48768;DHT22;34933;40.968;14.538;2022-07-10T13:07:48;36.70;58.00
48768;DHT22;34933;40.968;14.538;2022-07-10T13:10:34;37.70;58.80
48768;DHT22;34933;40.968;14.538;2022-07-10T13:13:20;38.70;56.20
48768;DHT22;34933;40.968;14.538;2022-07-10T13:16:05;39.50;54.80
48768;DHT22;34933;40.968;14.538;2022-07-10T13:18:50;40.50;55.80
48768;DHT22;34933;40.968;14.538;2022-07-10T13:21:36;40.60;55.60
48768;DHT22;34933;40.968;14.538;2022-07-10T13:24:24;39.30;56.00
48768;DHT22;34933;40.968;14.538;2022-07-10T13:27:11;37.60;56.30
48768;DHT22;34933;40.968;14.538;2022-07-10T13:29:55;36.90;57.20
48768;DHT22;34933;40.968;14.538;2022-07-10T13:32:40;37.40;57.00
48768;DHT22;34933;40.968;14.538;2022-07-10T13:35:28;39.00;56.10
48768;DHT22;34933;40.968;14.538;2022-07-10T13:38:13;38.50;58.00
48768;DHT22;34933;40.968;14.538;2022-07-10T13:40:58;37.10;60.30
48768;DHT22;34933;40.968;14.538;2022-07-10T13:43:43;36.60;61.40
48768;DHT22;34933;40.968;14.538;2022-07-10T13:46:28;37.20;61.00
48768;DHT22;34933;40.968;14.538;2022-07-10T13:49:12;37.10;60.00
48768;DHT22;34933;40.968;14.538;2022-07-10T13:51:57;37.30;61.30
48768;DHT22;34933;40.968;14.538;2022-07-10T13:54:42;38.10;60.40
48768;DHT22;34933;40.968;14.538;2022-07-10T13:57:27;38.80;60.20
48768;DHT22;34933;40.968;14.538;2022-07-10T14:00:11;39.40;59.00
48768;DHT22;34933;40.968;14.538;2022-07-10T14:02:56;40.00;58.50
48768;DHT22;34933;40.968;14.538;2022-07-10T14:05:41;40.40;58.00
48768;DHT22;34933;40.968;14.538;2022-07-10T14:08:29;41.20;57.50
48768;DHT22;34933;40.968;14.538;2022-07-10T14:11:14;41.60;57.90
48768;DHT22;34933;40.968;14.538;2022-07-10T14:14:00;42.00;56.90
48768;DHT22;34933;40.968;14.538;2022-07-10T14:16:44;41.50;57.60
48768;DHT22;34933;40.968;14.538;2022-07-10T14:19:29;41.50;57.60
48768;DHT22;34933;40.968;14.538;2022-07-10T14:22:13;40.80;57.60
48768;DHT22;34933;40.968;14.538;2022-07-10T14:24:58;41.20;57.60
48768;DHT22;34933;40.968;14.538;2022-07-10T14:27:44;41.50;57.20
48768;DHT22;34933;40.968;14.538;2022-07-10T14:30:29;41.60;56.80
48768;DHT22;34933;40.968;14.538;2022-07-10T14:33:14;41.70;56.40
48768;DHT22;34933;40.968;14.538;2022-07-10T14:35:59;40.80;56.40
48768;DHT22;34933;40.968;14.538;2022-07-10T14:38:44;40.00;56.30
48768;DHT22;34933;40.968;14.538;2022-07-10T14:41:29;40.50;56.70
48768;DHT22;34933;40.968;14.538;2022-07-10T14:44:13;40.80;57.30
48768;DHT22;34933;40.968;14.538;2022-07-10T14:46:58;40.80;56.70
48768;DHT22;34933;40.968;14.538;2022-07-10T14:49:43;41.20;57.00
48768;DHT22;34933;40.968;14.538;2022-07-10T14:52:27;41.00;56.60
48768;DHT22;34933;40.968;14.538;2022-07-10T14:55:15;41.00;56.30
48768;DHT22;34933;40.968;14.538;2022-07-10T14:58:00;40.80;57.50
48768;DHT22;34933;40.968;14.538;2022-07-10T15:00:45;41.40;56.60
48768;DHT22;34933;40.968;14.538;2022-07-10T15:03:29;41.40;57.10
48768;DHT22;34933;40.968;14.538;2022-07-10T15:06:14;41.30;57.80
48768;DHT22;34933;40.968;14.538;2022-07-10T15:08:59;41.90;57.60
48768;DHT22;34933;40.968;14.538;2022-07-10T15:11:44;41.90;56.90
48768;DHT22;34933;40.968;14.538;2022-07-10T15:14:28;40.70;57.40
48768;DHT22;34933;40.968;14.538;2022-07-10T15:17:13;40.10;58.10
48768;DHT22;34933;40.968;14.538;2022-07-10T15:19:58;40.20;58.10
48768;DHT22;34933;40.968;14.538;2022-07-10T15:22:43;39.00;58.40
48768;DHT22;34933;40.968;14.538;2022-07-10T15:25:27;38.10;59.20
48768;DHT22;34933;40.968;14.538;2022-07-10T15:28:12;38.00;59.60
48768;DHT22;34933;40.968;14.538;2022-07-10T15:30:56;38.30;59.20
48768;DHT22;34933;40.968;14.538;2022-07-10T15:33:41;37.70;59.90
48768;DHT22;34933;40.968;14.538;2022-07-10T15:36:29;37.90;59.90
48768;DHT22;34933;40.968;14.538;2022-07-10T15:39:13;38.40;58.90
48768;DHT22;34933;40.968;14.538;2022-07-10T15:41:58;38.50;58.10
48768;DHT22;34933;40.968;14.538;2022-07-10T15:44:43;37.50;57.70
48768;DHT22;34933;40.968;14.538;2022-07-10T15:47:28;37.20;59.10
48768;DHT22;34933;40.968;14.538;2022-07-10T15:50:12;37.20;59.50
48768;DHT22;34933;40.968;14.538;2022-07-10T15:52:57;36.90;59.00
48768;DHT22;34933;40.968;14.538;2022-07-10T15:55:41;36.00;59.50
48768;DHT22;34933;40.968;14.538;2022-07-10T15:58:26;36.40;59.20
48768;DHT22;34933;40.968;14.538;2022-07-10T16:01:11;36.30;59.10
48768;DHT22;34933;40.968;14.538;2022-07-10T16:03:57;36.70;58.10
48768;DHT22;34933;40.968;14.538;2022-07-10T16:06:41;35.80;58.70
48768;DHT22;34933;40.968;14.538;2022-07-10T16:09:26;34.40;59.70
48768;DHT22;34933;40.968;14.538;2022-07-10T16:12:10;33.60;60.30
48768;DHT22;34933;40.968;14.538;2022-07-10T16:14:55;32.90;61.50
48768;DHT22;34933;40.968;14.538;2022-07-10T16:17:40;32.40;61.10
48768;DHT22;34933;40.968;14.538;2022-07-10T16:20:25;32.10;61.60
48768;DHT22;34933;40.968;14.538;2022-07-10T16:23:09;32.40;60.60
48768;DHT22;34933;40.968;14.538;2022-07-10T16:25:54;32.10;60.60
48768;DHT22;34933;40.968;14.538;2022-07-10T16:28:44;31.80;61.50
48768;DHT22;34933;40.968;14.538;2022-07-10T16:31:29;31.60;61.50
48768;DHT22;34933;40.968;14.538;2022-07-10T16:34:14;31.60;61.90
48768;DHT22;34933;40.968;14.538;2022-07-10T16:36:58;31.70;61.10
48768;DHT22;34933;40.968;14.538;2022-07-10T16:39:43;31.80;61.90
48768;DHT22;34933;40.968;14.538;2022-07-10T16:42:28;32.10;61.50
48768;DHT22;34933;40.968;14.538;2022-07-10T16:45:14;32.60;61.00
48768;DHT22;34933;40.968;14.538;2022-07-10T16:47:58;33.30;61.40
48768;DHT22;34933;40.968;14.538;2022-07-10T16:50:43;34.80;60.20
48768;DHT22;34933;40.968;14.538;2022-07-10T16:53:28;35.60;58.80
48768;DHT22;34933;40.968;14.538;2022-07-10T16:56:13;35.70;59.00
48768;DHT22;34933;40.968;14.538;2022-07-10T16:58:58;36.00;59.60
48768;DHT22;34933;40.968;14.538;2022-07-10T17:01:43;36.40;60.60
48768;DHT22;34933;40.968;14.538;2022-07-10T17:04:28;36.50;58.40
48768;DHT22;34933;40.968;14.538;2022-07-10T17:07:22;36.00;58.40
48768;DHT22;34933;40.968;14.538;2022-07-10T17:10:08;36.70;57.20
48768;DHT22;34933;40.968;14.538;2022-07-10T17:12:53;37.00;57.90
48768;DHT22;34933;40.968;14.538;2022-07-10T17:15:38;37.10;58.00
48768;DHT22;34933;40.968;14.538;2022-07-10T17:18:23;37.20;58.50
48768;DHT22;34933;40.968;14.538;2022-07-10T17:21:07;37.30;58.60
48768;DHT22;34933;40.968;14.538;2022-07-10T17:23:58;36.60;59.00
48768;DHT22;34933;40.968;14.538;2022-07-10T17:26:43;36.20;59.30
48768;DHT22;34933;40.968;14.538;2022-07-10T17:29:28;35.20;60.10